sensor_id;sensor_type;location;lat;lon;timestamp;temperature;humidity
53675;DHT22;39574;50.534;8.500;2023-01-15T00:01:17;8.7;99.9
53675;DHT22;39574;50.534;8.500;2023-01-15T00:06:19;8.4;99.9
53675;DHT22;39574;50.534;8.500;2023-01-15T00:11:30;8.3;99.9
53675;DHT22;39574;50.534;8.500;2023-01-15T00:16:33;8.3;99.9
53675;DHT22;39574;50.534;8.500;2023-01-15T00:25:58;8.3;99.9
53675;DHT22;39574;50.534;8.500;2023-01-15T00:31:13;8.3;99.9
53675;DHT22;39574;50.534;8.500;2023-01-15T00:36:26;8.4;99.9
53675;DHT22;39574;50.534;8.500;2023-01-15T00:41:27;8.5;99.9
53675;DHT22;39574;50.534;8.500;2023-01-15T00:50:54;8.5;99.9
53675;DHT22;39574;50.534;8.500;2023-01-15T00:56:06;8.4;99.9
53675;DHT22;39574;50.534;8.500;2023-01-15T01:01:19;8.3;99.9
53675;DHT22;39574;50.534;8.500;2023-01-15T01:10:49;8.1;99.9
53675;DHT22;39574;50.534;8.500;2023-01-15T01:16:00;7.9;99.9
53675;DHT22;39574;50.534;8.500;2023-01-15T01:21:03;7.8;99.9
53675;DHT22;39574;50.534;8.500;2023-01-15T01:26:13;7.7;99.9
53675;DHT22;39574;50.534;8.500;2023-01-15T01:31:13;7.6;99.9
53675;DHT22;39574;50.534;8.500;2023-01-15T01:40:54;7.4;99.9
53675;DHT22;39574;50.534;8.500;2023-01-15T01:45:57;7.3;99.9
53675;DHT22;39574;50.534;8.500;2023-01-15T01:51:08;7.1;99.9
53675;DHT22;39574;50.534;8.500;2023-01-15T01:56:10;7.1;99.9
53675;DHT22;39574;50.534;8.500;2023-01-15T02:05:40;7.0;99.9
53675;DHT22;39574;50.534;8.500;2023-01-15T02:10:48;6.9;99.9
53675;DHT22;39574;50.534;8.500;2023-01-15T02:16:02;6.9;99.9
53675;DHT22;39574;50.534;8.500;2023-01-15T02:25:33;6.6;99.9
53675;DHT22;39574;50.534;8.500;2023-01-15T02:30:46;6.5;99.9
53675;DHT22;39574;50.534;8.500;2023-01-15T02:35:57;6.3;99.9
53675;DHT22;39574;50.534;8.500;2023-01-15T02:40:58;6.1;99.9
53675;DHT22;39574;50.534;8.500;2023-01-15T02:50:26;6.0;99.9
53675;DHT22;39574;50.534;8.500;2023-01-15T02:55:29;5.9;99.9
53675;DHT22;39574;50.534;8.500;2023-01-15T03:00:36;5.8;99.9
53675;DHT22;39574;50.534;8.500;2023-01-15T03:05:42;5.8;99.9
53675;DHT22;39574;50.534;8.500;2023-01-15T03:10:50;5.8;99.9
53675;DHT22;39574;50.534;8.500;2023-01-15T03:15:50;5.8;99.9
53675;DHT22;39574;50.534;8.500;2023-01-15T03:20:50;5.8;99.9
53675;DHT22;39574;50.534;8.500;2023-01-15T03:30:18;5.7;99.9
53675;DHT22;39574;50.534;8.500;2023-01-15T03:35:43;5.7;99.9
53675;DHT22;39574;50.534;8.500;2023-01-15T03:40:28;5.9;99.9
53675;DHT22;39574;50.534;8.500;2023-01-15T03:45:40;6.0;99.9
53675;DHT22;39574;50.534;8.500;2023-01-15T03:50:43;6.0;99.9
53675;DHT22;39574;50.534;8.500;2023-01-15T04:00:11;5.9;99.9
53675;DHT22;39574;50.534;8.500;2023-01-15T04:05:20;5.7;99.9
53675;DHT22;39574;50.534;8.500;2023-01-15T04:10:21;5.6;99.9
53675;DHT22;39574;50.534;8.500;2023-01-15T04:15:34;5.5;99.9
53675;DHT22;39574;50.534;8.500;2023-01-15T04:24:55;5.5;99.9
53675;DHT22;39574;50.534;8.500;2023-01-15T04:30:14;5.5;99.9
53675;DHT22;39574;50.534;8.500;2023-01-15T04:35:28;5.4;99.9
53675;DHT22;39574;50.534;8.500;2023-01-15T04:40:30;5.3;99.9
53675;DHT22;39574;50.534;8.500;2023-01-15T04:49:50;5.3;99.9
53675;DHT22;39574;50.534;8.500;2023-01-15T04:54:52;5.3;99.9
53675;DHT22;39574;50.534;8.500;2023-01-15T04:59:53;5.3;99.9
53675;DHT22;39574;50.534;8.500;2023-01-15T05:04:55;5.3;99.9
53675;DHT22;39574;50.534;8.500;2023-01-15T05:10:10;5.3;99.9
53675;DHT22;39574;50.534;8.500;2023-01-15T05:15:24;5.3;99.9
53675;DHT22;39574;50.534;8.500;2023-01-15T05:24:48;5.3;99.9
53675;DHT22;39574;50.534;8.500;2023-01-15T05:29:59;5.4;99.9
53675;DHT22;39574;50.534;8.500;2023-01-15T05:35:14;5.3;99.9
53675;DHT22;39574;50.534;8.500;2023-01-15T05:40:16;5.3;99.9
53675;DHT22;39574;50.534;8.500;2023-01-15T05:49:42;5.3;99.9
53675;DHT22;39574;50.534;8.500;2023-01-15T05:54:42;5.3;99.9
53675;DHT22;39574;50.534;8.500;2023-01-15T05:59:51;5.2;99.9
53675;DHT22;39574;50.534;8.500;2023-01-15T06:05:04;5.1;99.9
53675;DHT22;39574;50.534;8.500;2023-01-15T06:10:06;5.0;99.9
53675;DHT22;39574;50.534;8.500;2023-01-15T06:15:06;5.0;99.9
53675;DHT22;39574;50.534;8.500;2023-01-15T06:24:32;4.9;99.9
53675;DHT22;39574;50.534;8.500;2023-01-15T06:29:35;4.9;99.9
53675;DHT22;39574;50.534;8.500;2023-01-15T06:34:45;4.9;99.9
53675;DHT22;39574;50.534;8.500;2023-01-15T06:39:56;4.9;99.9
53675;DHT22;39574;50.534;8.500;2023-01-15T06:45:00;4.8;99.9
53675;DHT22;39574;50.534;8.500;2023-01-15T06:54:26;4.7;99.9
53675;DHT22;39574;50.534;8.500;2023-01-15T06:59:40;4.7;99.9
53675;DHT22;39574;50.534;8.500;2023-01-15T07:04:51;4.7;99.9
53675;DHT22;39574;50.534;8.500;2023-01-15T07:09:55;4.7;99.9
53675;DHT22;39574;50.534;8.500;2023-01-15T07:19:32;4.6;99.9
53675;DHT22;39574;50.534;8.500;2023-01-15T07:24:37;4.6;99.9
53675;DHT22;39574;50.534;8.500;2023-01-15T07:29:45;4.5;99.9
53675;DHT22;39574;50.534;8.500;2023-01-15T07:34:48;4.4;99.9
53675;DHT22;39574;50.534;8.500;2023-01-15T07:44:27;4.3;99.9
53675;DHT22;39574;50.534;8.500;2023-01-15T07:49:28;4.2;99.9
53675;DHT22;39574;50.534;8.500;2023-01-15T07:54:29;4.1;99.9
53675;DHT22;39574;50.534;8.500;2023-01-15T07:59:36;4.1;99.9
53675;DHT22;39574;50.534;8.500;2023-01-15T08:09:07;4.1;99.9
53675;DHT22;39574;50.534;8.500;2023-01-15T08:14:09;4.0;99.9
53675;DHT22;39574;50.534;8.500;2023-01-15T08:19:16;4.0;99.9
53675;DHT22;39574;50.534;8.500;2023-01-15T08:24:31;4.2;99.9
53675;DHT22;39574;50.534;8.500;2023-01-15T08:33:40;4.3;99.9
53675;DHT22;39574;50.534;8.500;2023-01-15T08:38:59;4.4;99.9
53675;DHT22;39574;50.534;8.500;2023-01-15T08:44:01;4.4;99.9
53675;DHT22;39574;50.534;8.500;2023-01-15T08:49:15;4.2;99.9
53675;DHT22;39574;50.534;8.500;2023-01-15T08:54:23;4.2;99.9
53675;DHT22;39574;50.534;8.500;2023-01-15T08:59:24;4.2;99.9
53675;DHT22;39574;50.534;8.500;2023-01-15T09:04:25;4.2;99.9
53675;DHT22;39574;50.534;8.500;2023-01-15T09:14:03;4.2;99.9
53675;DHT22;39574;50.534;8.500;2023-01-15T09:19:05;4.2;99.9
53675;DHT22;39574;50.534;8.500;2023-01-15T09:24:18;4.3;99.9
53675;DHT22;39574;50.534;8.500;2023-01-15T09:33:47;4.4;99.9
53675;DHT22;39574;50.534;8.500;2023-01-15T09:39:01;4.5;99.9
53675;DHT22;39574;50.534;8.500;2023-01-15T09:44:14;4.5;99.9
53675;DHT22;39574;50.534;8.500;2023-01-15T09:53:45;4.7;99.9
53675;DHT22;39574;50.534;8.500;2023-01-15T09:58:54;4.8;99.9
53675;DHT22;39574;50.534;8.500;2023-01-15T10:03:56;4.9;99.9
53675;DHT22;39574;50.534;8.500;2023-01-15T10:09:09;4.9;99.9
53675;DHT22;39574;50.534;8.500;2023-01-15T10:18:34;5.0;99.9
53675;DHT22;39574;50.534;8.500;2023-01-15T10:23:36;5.2;99.9
53675;DHT22;39574;50.534;8.500;2023-01-15T10:28:52;5.2;99.9
53675;DHT22;39574;50.534;8.500;2023-01-15T10:34:07;5.2;99.9
53675;DHT22;39574;50.534;8.500;2023-01-15T10:43:42;5.1;99.9
53675;DHT22;39574;50.534;8.500;2023-01-15T10:48:54;5.1;99.9
53675;DHT22;39574;50.534;8.500;2023-01-15T10:58:27;5.1;99.9
53675;DHT22;39574;50.534;8.500;2023-01-15T11:03:36;5.2;99.9
53675;DHT22;39574;50.534;8.500;2023-01-15T11:08:49;5.2;99.9
53675;DHT22;39574;50.534;8.500;2023-01-15T11:13:51;5.3;99.9
53675;DHT22;39574;50.534;8.500;2023-01-15T11:23:28;5.4;99.9
53675;DHT22;39574;50.534;8.500;2023-01-15T11:28:33;5.5;99.9
53675;DHT22;39574;50.534;8.500;2023-01-15T11:33:33;5.5;99.9
53675;DHT22;39574;50.534;8.500;2023-01-15T11:38:46;5.5;99.9
53675;DHT22;39574;50.534;8.500;2023-01-15T11:48:23;5.5;99.9
53675;DHT22;39574;50.534;8.500;2023-01-15T11:53:38;5.5;99.9
53675;DHT22;39574;50.534;8.500;2023-01-15T11:58:43;5.5;99.9
53675;DHT22;39574;50.534;8.500;2023-01-15T12:08:11;5.6;99.9
53675;DHT22;39574;50.534;8.500;2023-01-15T12:13:22;5.7;99.9
53675;DHT22;39574;50.534;8.500;2023-01-15T12:18:25;5.8;99.9
53675;DHT22;39574;50.534;8.500;2023-01-15T12:23:46;5.8;99.9
53675;DHT22;39574;50.534;8.500;2023-01-15T12:33:06;5.9;99.9
53675;DHT22;39574;50.534;8.500;2023-01-15T12:38:14;6.0;99.9
53675;DHT22;39574;50.534;8.500;2023-01-15T12:43:14;6.0;99.9
53675;DHT22;39574;50.534;8.500;2023-01-15T12:48:18;6.0;99.9
53675;DHT22;39574;50.534;8.500;2023-01-15T12:53:26;6.0;99.9
53675;DHT22;39574;50.534;8.500;2023-01-15T12:58:30;6.1;99.9
53675;DHT22;39574;50.534;8.500;2023-01-15T13:07:48;6.3;99.9
53675;DHT22;39574;50.534;8.500;2023-01-15T13:12:52;6.7;99.9
53675;DHT22;39574;50.534;8.500;2023-01-15T13:18:08;6.8;99.9
53675;DHT22;39574;50.534;8.500;2023-01-15T13:23:07;6.8;99.9
53675;DHT22;39574;50.534;8.500;2023-01-15T13:28:18;6.8;99.9
53675;DHT22;39574;50.534;8.500;2023-01-15T13:37:27;7.1;99.9
53675;DHT22;39574;50.534;8.500;2023-01-15T13:42:44;7.0;99.9
53675;DHT22;39574;50.534;8.500;2023-01-15T13:47:56;6.8;99.9
53675;DHT22;39574;50.534;8.500;2023-01-15T13:53:00;6.6;99.9
53675;DHT22;39574;50.534;8.500;2023-01-15T13:58:18;6.4;99.9
53675;DHT22;39574;50.534;8.500;2023-01-15T14:07:39;6.4;99.9
53675;DHT22;39574;50.534;8.500;2023-01-15T14:12:55;6.3;99.9
53675;DHT22;39574;50.534;8.500;2023-01-15T14:18:13;6.3;99.9
53675;DHT22;39574;50.534;8.500;2023-01-15T14:23:11;6.3;99.9
53675;DHT22;39574;50.534;8.500;2023-01-15T14:28:11;6.4;99.9
53675;DHT22;39574;50.534;8.500;2023-01-15T14:37:32;6.4;99.9
53675;DHT22;39574;50.534;8.500;2023-01-15T14:42:42;6.4;99.9
53675;DHT22;39574;50.534;8.500;2023-01-15T14:47:44;6.4;99.9
53675;DHT22;39574;50.534;8.500;2023-01-15T14:52:58;6.4;99.9
53675;DHT22;39574;50.534;8.500;2023-01-15T15:02:31;6.4;99.9
53675;DHT22;39574;50.534;8.500;2023-01-15T15:07:41;6.4;99.9
53675;DHT22;39574;50.534;8.500;2023-01-15T15:12:53;6.5;99.9
53675;DHT22;39574;50.534;8.500;2023-01-15T15:22:30;6.4;99.9
53675;DHT22;39574;50.534;8.500;2023-01-15T15:27:35;6.5;99.9
53675;DHT22;39574;50.534;8.500;2023-01-15T15:32:44;6.5;99.9
53675;DHT22;39574;50.534;8.500;2023-01-15T15:38:05;6.5;99.9
53675;DHT22;39574;50.534;8.500;2023-01-15T15:47:34;6.4;99.9
53675;DHT22;39574;50.534;8.500;2023-01-15T15:52:32;6.4;99.9
53675;DHT22;39574;50.534;8.500;2023-01-15T15:57:38;6.4;99.9
53675;DHT22;39574;50.534;8.500;2023-01-15T16:02:39;6.4;99.9
53675;DHT22;39574;50.534;8.500;2023-01-15T16:07:43;6.2;99.9
53675;DHT22;39574;50.534;8.500;2023-01-15T16:17:11;6.0;99.9
53675;DHT22;39574;50.534;8.500;2023-01-15T16:22:16;5.8;99.9
53675;DHT22;39574;50.534;8.500;2023-01-15T16:27:25;5.7;99.9
53675;DHT22;39574;50.534;8.500;2023-01-15T16:32:35;5.7;99.9
53675;DHT22;39574;50.534;8.500;2023-01-15T16:37:37;5.8;99.9
53675;DHT22;39574;50.534;8.500;2023-01-15T16:47:04;5.8;99.9
53675;DHT22;39574;50.534;8.500;2023-01-15T16:52:33;5.8;99.9
53675;DHT22;39574;50.534;8.500;2023-01-15T16:57:27;5.8;99.9
53675;DHT22;39574;50.534;8.500;2023-01-15T17:06:41;5.8;99.9
53675;DHT22;39574;50.534;8.500;2023-01-15T17:11:56;5.8;99.9
53675;DHT22;39574;50.534;8.500;2023-01-15T17:17:13;5.8;99.9
53675;DHT22;39574;50.534;8.500;2023-01-15T17:22:09;5.7;99.9
53675;DHT22;39574;50.534;8.500;2023-01-15T17:27:19;5.7;99.9
53675;DHT22;39574;50.534;8.500;2023-01-15T17:32:19;5.7;99.9
53675;DHT22;39574;50.534;8.500;2023-01-15T17:41:48;5.7;99.9
53675;DHT22;39574;50.534;8.500;2023-01-15T17:46:49;5.7;99.9
53675;DHT22;39574;50.534;8.500;2023-01-15T17:51:58;5.7;99.9
53675;DHT22;39574;50.534;8.500;2023-01-15T17:56:59;5.7;99.9
53675;DHT22;39574;50.534;8.500;2023-01-15T18:02:09;5.7;99.9
53675;DHT22;39574;50.534;8.500;2023-01-15T18:07:13;5.7;99.9
53675;DHT22;39574;50.534;8.500;2023-01-15T18:16:39;5.7;99.9
53675;DHT22;39574;50.534;8.500;2023-01-15T18:21:49;5.6;99.9
53675;DHT22;39574;50.534;8.500;2023-01-15T18:27:02;5.7;99.9
53675;DHT22;39574;50.534;8.500;2023-01-15T18:32:04;5.7;99.9
53675;DHT22;39574;50.534;8.500;2023-01-15T18:41:34;5.7;99.9
53675;DHT22;39574;50.534;8.500;2023-01-15T18:46:34;5.5;99.9
53675;DHT22;39574;50.534;8.500;2023-01-15T18:51:47;5.2;99.9
53675;DHT22;39574;50.534;8.500;2023-01-15T18:56:57;5.0;99.9
53675;DHT22;39574;50.534;8.500;2023-01-15T19:06:30;4.9;99.9
53675;DHT22;39574;50.534;8.500;2023-01-15T19:11:37;5.0;99.9
53675;DHT22;39574;50.534;8.500;2023-01-15T19:16:42;5.0;99.9
53675;DHT22;39574;50.534;8.500;2023-01-15T19:21:54;5.0;99.9
53675;DHT22;39574;50.534;8.500;2023-01-15T19:31:21;5.0;99.9
53675;DHT22;39574;50.534;8.500;2023-01-15T19:36:32;5.0;99.9
53675;DHT22;39574;50.534;8.500;2023-01-15T19:41:46;5.0;99.9
53675;DHT22;39574;50.534;8.500;2023-01-15T19:50:59;5.0;99.9
53675;DHT22;39574;50.534;8.500;2023-01-15T19:56:26;5.0;99.9
53675;DHT22;39574;50.534;8.500;2023-01-15T20:01:27;5.1;99.9
53675;DHT22;39574;50.534;8.500;2023-01-15T20:06:40;5.1;99.9
53675;DHT22;39574;50.534;8.500;2023-01-15T20:11:43;5.1;99.9
53675;DHT22;39574;50.534;8.500;2023-01-15T20:21:19;5.1;99.9
53675;DHT22;39574;50.534;8.500;2023-01-15T20:26:19;5.0;99.9
53675;DHT22;39574;50.534;8.500;2023-01-15T20:31:33;5.0;99.9
53675;DHT22;39574;50.534;8.500;2023-01-15T20:36:34;5.0;99.9
53675;DHT22;39574;50.534;8.500;2023-01-15T20:46:06;5.0;99.9
53675;DHT22;39574;50.534;8.500;2023-01-15T20:51:08;5.1;99.9
53675;DHT22;39574;50.534;8.500;2023-01-15T20:56:12;5.1;99.9
53675;DHT22;39574;50.534;8.500;2023-01-15T21:01:13;5.2;99.9
53675;DHT22;39574;50.534;8.500;2023-01-15T21:06:14;5.2;99.9
53675;DHT22;39574;50.534;8.500;2023-01-15T21:11:23;5.1;99.9
53675;DHT22;39574;50.534;8.500;2023-01-15T21:20:54;5.0;99.9
53675;DHT22;39574;50.534;8.500;2023-01-15T21:26:04;5.0;99.9
53675;DHT22;39574;50.534;8.500;2023-01-15T21:31:05;5.0;99.9
53675;DHT22;39574;50.534;8.500;2023-01-15T21:36:05;5.1;99.9
53675;DHT22;39574;50.534;8.500;2023-01-15T21:41:15;5.1;99.9
53675;DHT22;39574;50.534;8.500;2023-01-15T21:50:46;5.2;99.9
53675;DHT22;39574;50.534;8.500;2023-01-15T21:55:54;5.2;99.9
53675;DHT22;39574;50.534;8.500;2023-01-15T22:00:56;5.2;99.9
53675;DHT22;39574;50.534;8.500;2023-01-15T22:06:01;5.2;99.9
53675;DHT22;39574;50.534;8.500;2023-01-15T22:11:08;5.2;99.9
53675;DHT22;39574;50.534;8.500;2023-01-15T22:16:08;5.2;99.9
53675;DHT22;39574;50.534;8.500;2023-01-15T22:21:10;5.2;99.9
53675;DHT22;39574;50.534;8.500;2023-01-15T22:30:35;5.3;99.9
53675;DHT22;39574;50.534;8.500;2023-01-15T22:35:36;5.2;99.9
53675;DHT22;39574;50.534;8.500;2023-01-15T22:40:49;5.2;99.9
53675;DHT22;39574;50.534;8.500;2023-01-15T22:46:06;5.1;99.9
53675;DHT22;39574;50.534;8.500;2023-01-15T22:55:29;5.1;99.9
53675;DHT22;39574;50.534;8.500;2023-01-15T23:00:30;5.2;99.9
53675;DHT22;39574;50.534;8.500;2023-01-15T23:05:39;5.2;99.9
53675;DHT22;39574;50.534;8.500;2023-01-15T23:10:40;5.2;99.9
53675;DHT22;39574;50.534;8.500;2023-01-15T23:15:55;5.1;99.9
53675;DHT22;39574;50.534;8.500;2023-01-15T23:25:23;5.1;99.9
53675;DHT22;39574;50.534;8.500;2023-01-15T23:30:24;5.1;99.9
53675;DHT22;39574;50.534;8.500;2023-01-15T23:35:35;5.0;99.9
53675;DHT22;39574;50.534;8.500;2023-01-15T23:40:37;5.0;99.9
53675;DHT22;39574;50.534;8.500;2023-01-15T23:45:47;4.9;99.9
53675;DHT22;39574;50.534;8.500;2023-01-15T23:55:13;4.9;99.9
